Time;durP1;ratioP1;P1;durP2;ratioP2;P2;SDS_P1;SDS_P2;PMS_P1;PMS_P2;Temp;Humidity;BMP_temperature;BMP_pressure;BME280_temperature;BME280_humidity;BME280_pressure;Samples;Min_cycle;Max_cycle;Signal;HPM_P1;HPM_P2
2023/04/25 00:02:19;;;;;;;2.72;1.30;;;;;;;9.05;100.00;99410.19;5073125;28;20115;-74
2023/04/25 00:04:46;;;;;;;1.48;1.10;;;;;;;9.10;100.00;99415.16;5072981;28;20028;-74
2023/04/25 00:07:11;;;;;;;1.40;1.30;;;;;;;9.10;100.00;99413.06;5072888;28;20031;-73
2023/04/25 00:09:37;;;;;;;1.35;1.17;;;;;;;9.12;100.00;99418.25;5072838;28;20020;-74
2023/04/25 00:12:02;;;;;;;3.10;1.40;;;;;;;9.05;100.00;99418.72;5072793;28;20083;-72
2023/04/25 00:14:29;;;;;;;1.35;1.08;;;;;;;9.06;100.00;99415.34;5073639;28;20043;-72
2023/04/25 00:16:54;;;;;;;4.72;1.70;;;;;;;8.96;100.00;99421.72;5071662;28;20025;-72
2023/04/25 00:19:20;;;;;;;1.83;1.23;;;;;;;8.76;100.00;99411.16;5072717;28;20035;-72
2023/04/25 00:21:46;;;;;;;2.00;1.65;;;;;;;8.84;100.00;99415.16;5072872;28;20032;-74
2023/04/25 00:24:12;;;;;;;1.45;1.23;;;;;;;8.82;100.00;99418.50;5072706;28;20462;-74
2023/04/25 00:26:37;;;;;;;1.10;1.00;;;;;;;8.88;100.00;99423.47;5072840;28;20049;-73
2023/04/25 00:29:03;;;;;;;1.70;1.20;;;;;;;8.79;100.00;99424.44;5072677;28;20322;-73
2023/04/25 00:31:28;;;;;;;3.05;1.50;;;;;;;8.70;100.00;99428.22;5072843;28;20032;-73
2023/04/25 00:33:54;;;;;;;1.35;1.25;;;;;;;8.63;100.00;99420.13;5072810;28;20449;-72
2023/04/25 00:36:20;;;;;;;1.20;1.10;;;;;;;8.71;100.00;99424.06;5071453;28;20107;-73
2023/04/25 00:38:45;;;;;;;2.85;1.20;;;;;;;8.71;100.00;99424.06;5071106;28;20028;-72
2023/04/25 00:41:10;;;;;;;1.30;1.00;;;;;;;8.63;100.00;99422.97;5071226;28;20021;-73
2023/04/25 00:43:37;;;;;;;1.52;1.30;;;;;;;8.60;100.00;99429.69;5054565;28;20020;-73
2023/04/25 00:46:03;;;;;;;1.20;1.10;;;;;;;8.61;100.00;99433.28;5072920;28;20032;-72
2023/04/25 00:48:28;;;;;;;1.40;1.30;;;;;;;8.71;100.00;99429.78;5072721;28;20036;-73
2023/04/25 00:50:57;;;;;;;2.45;1.30;;;;;;;8.81;100.00;99434.03;5072676;28;20028;-72
2023/04/25 00:53:25;;;;;;;1.65;1.40;;;;;;;8.91;100.00;99431.00;5072613;28;20020;-72
2023/04/25 00:55:51;;;;;;;1.50;1.40;;;;;;;8.83;100.00;99427.84;5072045;28;20142;-74
2023/04/25 00:58:18;;;;;;;1.40;1.30;;;;;;;8.74;100.00;99437.34;5072626;28;20028;-72
2023/04/25 01:00:45;;;;;;;1.98;1.50;;;;;;;8.61;100.00;99427.59;5072224;28;20029;-73
2023/04/25 01:03:11;;;;;;;4.88;1.70;;;;;;;8.68;100.00;99424.31;5071361;28;20032;-72
2023/04/25 01:05:37;;;;;;;1.80;1.50;;;;;;;8.73;100.00;99435.75;5071659;28;20086;-73
2023/04/25 01:08:02;;;;;;;2.13;1.50;;;;;;;8.74;100.00;99437.34;5072405;28;20029;-74
2023/04/25 01:10:27;;;;;;;3.30;2.72;;;;;;;8.72;100.00;99431.34;5073865;28;20086;-74
2023/04/25 01:12:53;;;;;;;2.67;1.95;;;;;;;8.81;100.00;99433.25;5072489;28;20377;-73
2023/04/25 01:15:18;;;;;;;7.72;2.30;;;;;;;8.82;100.00;99434.81;5072650;28;20429;-71
2023/04/25 01:17:44;;;;;;;2.97;1.70;;;;;;;8.68;100.00;99427.94;5073920;28;20466;-73
2023/04/25 01:20:11;;;;;;;2.47;2.10;;;;;;;8.74;100.00;99434.47;5073973;28;20035;-72
2023/04/25 01:22:36;;;;;;;3.72;2.30;;;;;;;8.71;100.00;99429.78;5075634;28;20032;-73
2023/04/25 01:25:02;;;;;;;2.95;2.30;;;;;;;8.69;100.00;99429.50;5073867;28;20089;-74
2023/04/25 01:27:28;;;;;;;6.13;2.38;;;;;;;8.71;100.00;99432.63;5072440;28;20667;-73
2023/04/25 01:29:54;;;;;;;4.18;2.47;;;;;;;8.53;100.00;99430.09;5072550;28;20069;-73
2023/04/25 01:32:20;;;;;;;3.67;2.20;;;;;;;8.59;100.00;99444.41;5074041;28;20507;-73
2023/04/25 01:34:45;;;;;;;6.07;2.90;;;;;;;8.60;100.00;99445.97;5074026;28;20040;-74
2023/04/25 01:37:11;;;;;;;4.30;2.55;;;;;;;8.62;100.00;99443.38;5073820;28;20075;-74
2023/04/25 01:39:36;;;;;;;4.72;3.25;;;;;;;8.68;100.00;99445.03;5073483;28;20041;-73
2023/04/25 01:42:02;;;;;;;5.32;2.65;;;;;;;8.68;100.00;99452.78;5075408;28;20032;-73
2023/04/25 01:44:27;;;;;;;4.40;2.70;;;;;;;8.64;100.00;99446.53;5075263;28;20143;-73
2023/04/25 01:46:53;;;;;;;4.97;2.45;;;;;;;8.62;100.00;99449.88;5074217;28;20036;-72
2023/04/25 01:49:19;;;;;;;5.55;2.67;;;;;;;8.57;100.00;99452.66;5075336;28;20433;-73
2023/04/25 01:51:44;;;;;;;4.93;2.58;;;;;;;8.59;100.00;99448.03;5073974;28;20032;-72
2023/04/25 01:54:10;;;;;;;5.82;2.83;;;;;;;8.71;100.00;99461.09;5073643;28;20477;-74
2023/04/25 01:56:37;;;;;;;3.20;2.30;;;;;;;8.59;100.00;99455.78;5073717;28;20028;-74
2023/04/25 01:59:04;;;;;;;3.38;2.50;;;;;;;8.60;100.00;99448.81;5075123;28;20028;-73
2023/04/25 02:01:29;;;;;;;4.85;2.60;;;;;;;8.63;100.00;99454.28;5073730;28;20031;-74
2023/04/25 02:03:55;;;;;;;3.50;2.63;;;;;;;8.46;100.00;99461.84;5074855;28;20032;-74
2023/04/25 02:06:20;;;;;;;3.53;2.50;;;;;;;8.36;100.00;99446.97;5074853;28;20033;-74
2023/04/25 02:08:46;;;;;;;6.13;3.22;;;;;;;8.36;100.00;99458.34;5075017;28;20024;-73
2023/04/25 02:11:11;;;;;;;3.42;2.63;;;;;;;8.37;100.00;99448.53;5074745;28;20032;-72
2023/04/25 02:13:37;;;;;;;3.50;2.40;;;;;;;8.43;100.00;99453.53;5074763;28;20064;-74
2023/04/25 02:16:02;;;;;;;4.88;2.83;;;;;;;8.39;100.00;99454.53;5074014;28;20024;-72
2023/04/25 02:18:28;;;;;;;5.55;2.88;;;;;;;8.33;100.00;99450.03;5075126;28;20032;-73
2023/04/25 02:20:53;;;;;;;4.20;3.00;;;;;;;8.28;100.00;99453.59;5074728;28;20469;-74
2023/04/25 02:23:19;;;;;;;4.47;2.97;;;;;;;8.22;100.00;99447.81;5073479;28;20028;-73
2023/04/25 02:25:44;;;;;;;5.72;3.15;;;;;;;8.14;100.00;99443.81;5073351;28;20036;-72
2023/04/25 02:28:10;;;;;;;4.35;3.22;;;;;;;8.23;100.00;99452.25;5074666;28;20030;-73
2023/04/25 02:30:36;;;;;;;4.75;3.40;;;;;;;8.12;100.00;99446.38;5074771;28;20488;-72
2023/04/25 02:33:01;;;;;;;4.13;3.72;;;;;;;8.07;100.00;99444.22;5074539;28;20039;-73
2023/04/25 02:35:26;;;;;;;7.85;3.58;;;;;;;7.98;100.00;99453.69;5074362;28;20474;-72
2023/04/25 02:37:52;;;;;;;5.18;3.38;;;;;;;8.05;100.00;99448.88;5074356;28;20434;-74
2023/04/25 02:40:17;;;;;;;4.85;3.15;;;;;;;7.98;100.00;99452.91;5074804;28;20024;-73
2023/04/25 02:42:45;;;;;;;5.22;3.40;;;;;;;8.01;100.00;99456.84;5072852;28;20024;-72
2023/04/25 02:45:11;;;;;;;6.72;3.25;;;;;;;8.02;100.00;99464.06;5074174;28;20032;-74
2023/04/25 02:47:36;;;;;;;4.43;3.70;;;;;;;8.04;100.00;99455.84;5074839;28;20369;-73
2023/04/25 02:50:02;;;;;;;4.00;3.30;;;;;;;8.00;100.00;99456.06;5074315;28;20017;-73
2023/04/25 02:52:27;;;;;;;4.47;3.50;;;;;;;7.96;100.00;99455.47;5074209;28;20389;-72
2023/04/25 02:54:53;;;;;;;5.95;3.28;;;;;;;7.97;100.00;99457.81;5073696;28;20102;-73
2023/04/25 02:57:18;;;;;;;6.32;4.03;;;;;;;8.05;100.00;99469.56;5074092;28;20469;-73
2023/04/25 02:59:43;;;;;;;5.47;4.20;;;;;;;8.02;100.00;99459.16;5074255;28;20527;-71
2023/04/25 03:02:09;;;;;;;6.47;3.55;;;;;;;8.05;100.00;99461.03;5077114;28;20028;-71
2023/04/25 03:04:35;;;;;;;4.55;3.60;;;;;;;8.08;100.00;99459.25;5076450;28;20074;-73
2023/04/25 03:07:00;;;;;;;8.48;3.85;;;;;;;8.02;100.00;99447.78;5076989;28;20024;-71
2023/04/25 03:09:26;;;;;;;5.47;3.75;;;;;;;7.96;100.00;99455.47;5073406;28;20028;-71
2023/04/25 03:11:52;;;;;;;8.48;3.88;;;;;;;7.92;100.00;99454.88;5072687;28;20358;-72
2023/04/25 03:14:17;;;;;;;7.47;4.18;;;;;;;7.81;100.00;99447.00;5074201;28;20025;-71
2023/04/25 03:16:42;;;;;;;6.78;4.40;;;;;;;7.77;100.00;99452.09;5073599;28;20046;-73
2023/04/25 03:19:08;;;;;;;5.65;4.00;;;;;;;7.68;100.00;99443.69;5073746;28;20399;-72
2023/04/25 03:21:34;;;;;;;6.70;4.40;;;;;;;7.67;100.00;99452.72;5072133;28;20091;-72
2023/04/25 03:24:02;;;;;;;5.07;3.38;;;;;;;7.53;100.00;99446.56;5073668;28;20040;-72
2023/04/25 03:26:27;;;;;;;4.70;3.40;;;;;;;7.32;100.00;99450.63;5073616;28;20029;-71
2023/04/25 03:28:52;;;;;;;5.55;3.55;;;;;;;7.22;100.00;99451.22;5073626;28;20024;-73
2023/04/25 03:31:18;;;;;;;7.75;3.90;;;;;;;7.27;100.00;99453.38;5073404;28;20047;-74
2023/04/25 03:33:43;;;;;;;5.30;3.70;;;;;;;7.24;100.00;99457.19;5073231;28;20024;-71
2023/04/25 03:36:09;;;;;;;6.20;3.55;;;;;;;7.21;100.00;99452.50;5071641;28;20032;-72
2023/04/25 03:38:35;;;;;;;5.57;3.65;;;;;;;7.36;100.00;99464.63;5073363;28;20105;-74
2023/04/25 03:41:01;;;;;;;8.25;3.70;;;;;;;7.41;100.00;99461.09;5073598;28;20055;-74
2023/04/25 03:43:27;;;;;;;5.07;3.70;;;;;;;7.36;100.00;99465.41;5073375;28;20024;-72
2023/04/25 03:45:52;;;;;;;5.38;3.92;;;;;;;7.39;100.00;99461.59;5073080;28;20073;-72
2023/04/25 03:48:17;;;;;;;9.35;4.07;;;;;;;7.30;100.00;99466.59;5071774;28;20523;-72
2023/04/25 03:50:43;;;;;;;10.20;4.07;;;;;;;7.41;100.00;99463.94;5072970;28;20028;-73
2023/04/25 03:53:08;;;;;;;6.28;3.78;;;;;;;7.40;100.00;99471.69;5073462;28;20042;-73
2023/04/25 03:55:34;;;;;;;5.10;4.32;;;;;;;7.55;100.00;99468.81;5071563;28;20040;-72
2023/04/25 03:57:59;;;;;;;6.40;4.63;;;;;;;7.63;100.00;99472.03;5073013;28;20031;-74
2023/04/25 04:00:25;;;;;;;8.25;4.60;;;;;;;7.67;100.00;99472.63;5072959;28;20037;-75
2023/04/25 04:02:50;;;;;;;10.95;5.82;;;;;;;7.67;100.00;99467.69;5072984;28;20032;-75
2023/04/25 04:05:16;;;;;;;7.00;4.82;;;;;;;7.66;100.00;99482.44;5072835;28;20024;-72
2023/04/25 04:07:42;;;;;;;7.45;4.55;;;;;;;7.58;100.00;99484.09;5072837;28;20099;-73
2023/04/25 04:10:11;;;;;;;11.73;4.85;;;;;;;7.70;100.00;99483.00;5072435;28;20350;-72
2023/04/25 04:12:37;;;;;;;10.68;4.78;;;;;;;7.85;100.00;99483.75;5073174;28;20028;-73
2023/04/25 04:15:06;;;;;;;11.45;6.55;;;;;;;7.94;100.00;99483.63;5071656;28;20103;-72
2023/04/25 04:17:53;;;;;;;8.20;6.22;;;;;;;8.04;100.00;99485.06;5051536;28;20092;-73
2023/04/25 04:20:19;;;;;;;8.35;5.07;;;;;;;8.05;100.00;99492.34;5052292;28;20451;-74
2023/04/25 04:22:45;;;;;;;9.10;4.82;;;;;;;8.08;100.00;99490.53;5052910;28;20515;-74
2023/04/25 04:25:11;;;;;;;7.55;4.82;;;;;;;8.09;100.00;99481.53;5034636;28;20044;-74
2023/04/25 04:27:54;;;;;;;10.20;4.90;;;;;;;7.94;100.00;99495.00;5051512;28;20083;-74
2023/04/25 04:30:24;;;;;;;7.47;4.80;;;;;;;7.88;100.00;99494.13;5055717;28;20114;-73
2023/04/25 04:32:52;;;;;;;5.35;4.57;;;;;;;7.80;100.00;99493.00;5071744;28;20039;-75
2023/04/25 04:35:24;;;;;;;7.20;4.95;;;;;;;7.86;100.00;99496.72;5070439;28;20029;-73
2023/04/25 04:37:50;;;;;;;7.93;5.47;;;;;;;8.10;100.00;99493.69;5071107;28;20127;-73
2023/04/25 04:40:17;;;;;;;7.03;5.00;;;;;;;8.12;100.00;99497.59;5073766;28;20040;-74
2023/04/25 04:42:43;;;;;;;7.72;5.45;;;;;;;8.27;100.00;99498.34;5076462;28;20031;-73
2023/04/25 04:45:11;;;;;;;5.85;4.43;;;;;;;8.37;100.00;99501.84;5058651;28;20494;-72
2023/04/25 04:47:45;;;;;;;8.85;5.35;;;;;;;8.37;100.00;99496.94;5076968;28;20099;-75
2023/04/25 04:50:11;;;;;;;5.85;4.22;;;;;;;8.52;100.00;99507.47;5076679;28;20458;-75
2023/04/25 04:52:38;;;;;;;8.95;4.45;;;;;;;8.48;100.00;99493.44;5076780;28;20146;-75
2023/04/25 04:55:05;;;;;;;7.13;4.43;;;;;;;8.65;100.00;99493.66;5075213;28;20402;-75
2023/04/25 04:57:32;;;;;;;10.18;4.38;;;;;;;8.63;100.00;99505.53;5076439;28;20035;-76
2023/04/25 04:59:59;;;;;;;6.18;4.22;;;;;;;8.69;100.00;99502.78;5058520;28;20115;-75
2023/04/25 05:02:25;;;;;;;6.35;4.82;;;;;;;8.62;100.00;99491.81;5074963;28;20033;-74
2023/04/25 05:04:51;;;;;;;8.18;4.93;;;;;;;8.88;100.00;99504.03;5075521;28;20323;-79
2023/04/25 05:07:17;;;;;;;9.73;5.18;;;;;;;8.83;100.00;99499.06;5041743;28;20078;-79
2023/04/25 05:09:44;;;;;;;13.43;5.65;;;;;;;8.99;100.00;99500.53;5074596;28;20106;-82
2023/04/25 05:12:24;;;;;;;6.22;4.53;;;;;;;9.09;100.00;99499.88;5076072;28;20081;-78
2023/04/25 05:14:49;;;;;;;8.38;4.80;;;;;;;9.26;100.00;99509.34;5075854;28;20040;-79
2023/04/25 05:17:16;;;;;;;11.02;4.50;;;;;;;9.22;100.00;99508.78;5075608;28;20032;-76
2023/04/25 05:19:42;;;;;;;7.25;4.20;;;;;;;9.19;100.00;99509.03;5075709;28;20041;-76
2023/04/25 05:22:09;;;;;;;6.68;4.60;;;;;;;9.25;100.00;99509.84;5075849;28;20024;-76
2023/04/25 05:24:34;;;;;;;5.93;4.18;;;;;;;9.59;100.00;99508.09;5075538;28;20509;-77
2023/04/25 05:27:00;;;;;;;5.68;4.25;;;;;;;9.72;100.00;99504.81;5076859;28;20025;-78
2023/04/25 05:29:25;;;;;;;7.38;4.50;;;;;;;9.94;100.00;99496.47;5075880;28;20108;-77
2023/04/25 05:31:51;;;;;;;4.88;3.90;;;;;;;10.13;100.00;99497.63;5075843;28;20027;-77
2023/04/25 05:34:16;;;;;;;6.78;5.20;;;;;;;10.42;100.00;99502.19;5075724;28;20065;-79
2023/04/25 05:36:42;;;;;;;5.32;4.22;;;;;;;10.18;100.00;99508.31;5075666;28;20039;-76
2023/04/25 05:39:08;;;;;;;9.18;5.32;;;;;;;10.14;100.00;99504.88;5075839;28;20380;-77
2023/04/25 05:41:34;;;;;;;6.30;3.88;;;;;;;10.35;100.00;99500.59;5075244;28;20039;-78
2023/04/25 05:43:59;;;;;;;4.80;3.88;;;;;;;10.71;100.00;99504.66;5073295;28;20111;-77
2023/04/25 05:46:25;;;;;;;6.03;4.65;;;;;;;10.91;100.00;99503.69;5074110;28;20029;-76
2023/04/25 05:48:50;;;;;;;6.45;3.88;;;;;;;10.99;100.00;99505.53;5074921;28;20042;-77
2023/04/25 05:51:16;;;;;;;4.65;3.60;;;;;;;10.87;100.00;99501.09;5073192;28;20029;-77
2023/04/25 05:53:41;;;;;;;9.35;4.97;;;;;;;11.08;100.00;99504.50;5072913;28;20028;-76
2023/04/25 05:56:07;;;;;;;5.95;3.90;;;;;;;11.44;100.00;99502.00;5074474;28;20025;-77
2023/04/25 05:58:33;;;;;;;9.20;3.88;;;;;;;10.96;100.00;99514.38;5074362;28;20111;-77
2023/04/25 06:00:59;;;;;;;5.05;3.90;;;;;;;10.78;100.00;99514.81;5073560;28;20124;-77
2023/04/25 06:03:24;;;;;;;7.65;3.78;;;;;;;10.73;100.00;99509.88;5073074;28;20032;-77
2023/04/25 06:05:50;;;;;;;10.88;4.45;;;;;;;10.87;100.00;99506.81;5073141;28;20051;-76
2023/04/25 06:08:15;;;;;;;8.32;3.70;;;;;;;10.91;100.00;99507.34;5073064;28;20177;-76
2023/04/25 06:10:41;;;;;;;5.90;3.88;;;;;;;11.17;100.00;99495.72;5072967;28;20050;-77
2023/04/25 06:13:06;;;;;;;6.15;4.00;;;;;;;11.46;99.09;99508.78;5069150;28;20048;-81
2023/04/25 06:15:35;;;;;;;4.57;3.45;;;;;;;11.64;97.33;99514.00;5072693;28;20076;-80
2023/04/25 06:18:00;;;;;;;6.43;4.25;;;;;;;11.57;95.89;99511.63;5072938;28;20025;-80
2023/04/25 06:20:26;;;;;;;5.07;3.40;;;;;;;11.71;95.96;99502.03;5072399;28;20036;-80
2023/04/25 06:22:51;;;;;;;10.65;4.40;;;;;;;12.09;96.13;99505.38;5072871;28;20083;-79
2023/04/25 06:25:17;;;;;;;4.47;3.65;;;;;;;12.31;92.85;99511.03;5071672;28;20032;-81
2023/04/25 06:27:43;;;;;;;6.63;3.58;;;;;;;12.62;92.46;99490.66;5072940;28;20032;-81
2023/04/25 06:30:08;;;;;;;6.07;2.92;;;;;;;12.88;87.67;99510.38;5074270;28;20024;-80
2023/04/25 06:32:34;;;;;;;6.25;3.10;;;;;;;13.06;87.39;99506.88;5074589;28;20155;-82
2023/04/25 06:35:00;;;;;;;4.93;3.10;;;;;;;13.59;83.06;99512.59;5070906;28;20470;-81
2023/04/25 06:37:26;;;;;;;9.15;3.55;;;;;;;14.60;77.16;99513.19;5071173;28;20032;-80
2023/04/25 06:39:51;;;;;;;5.35;2.47;;;;;;;15.98;73.28;99507.56;5072109;28;20052;-82
2023/04/25 06:42:17;;;;;;;4.15;3.00;;;;;;;17.12;61.03;99515.06;5070739;28;20051;-81
2023/04/25 06:44:42;;;;;;;7.30;3.20;;;;;;;17.76;57.96;99520.44;5072090;28;20038;-83
2023/04/25 06:47:08;;;;;;;5.68;4.00;;;;;;;18.70;53.96;99514.31;5070895;28;20082;-82
2023/04/25 06:49:33;;;;;;;5.00;2.53;;;;;;;17.89;48.82;99519.59;5074087;28;20024;-81
2023/04/25 06:51:59;;;;;;;10.63;2.97;;;;;;;17.95;49.31;99518.13;5074108;28;20066;-82
2023/04/25 06:54:26;;;;;;;4.15;2.80;;;;;;;17.87;47.91;99525.97;5072466;28;20501;-81
2023/04/25 06:56:52;;;;;;;13.13;3.45;;;;;;;17.70;48.24;99519.81;5074144;28;20027;-81
2023/04/25 06:59:18;;;;;;;4.05;2.85;;;;;;;18.20;49.21;99513.53;5074616;28;20033;-82
2023/04/25 07:01:43;;;;;;;6.32;3.25;;;;;;;18.82;49.25;99503.22;5074207;28;20449;-81
2023/04/25 07:04:09;;;;;;;5.38;2.92;;;;;;;19.17;45.22;99511.13;5075619;28;20058;-81
2023/04/25 07:06:37;;;;;;;9.35;3.40;;;;;;;18.93;44.83;99506.53;5087802;28;20024;-84
2023/04/25 07:09:03;;;;;;;5.75;2.70;;;;;;;19.10;44.02;99512.63;5086952;28;20051;-83
2023/04/25 07:11:29;;;;;;;9.32;3.40;;;;;;;19.68;45.16;99504.53;5078184;28;20399;-85
2023/04/25 07:13:54;;;;;;;8.90;3.03;;;;;;;20.05;42.33;99506.75;5077020;28;20035;-84
2023/04/25 07:16:20;;;;;;;5.72;2.28;;;;;;;19.24;40.41;99509.59;5058476;28;20081;-83
2023/04/25 07:18:45;;;;;;;7.97;3.35;;;;;;;19.18;41.98;99512.66;5075554;28;20398;-82
2023/04/25 07:21:10;;;;;;;8.75;2.55;;;;;;;19.87;41.82;99513.63;5079949;28;20020;-84
2023/04/25 07:23:37;;;;;;;6.28;3.00;;;;;;;19.77;40.17;99512.66;5078586;28;20389;-86
2023/04/25 07:26:02;;;;;;;5.05;2.30;;;;;;;19.45;39.52;99511.03;5075339;28;20087;-85
2023/04/25 07:28:28;;;;;;;6.53;2.50;;;;;;;19.77;40.24;99509.75;5075083;28;20052;-85
2023/04/25 07:30:53;;;;;;;5.40;3.30;;;;;;;19.47;39.67;99508.34;5072798;28;20079;-85
2023/04/25 07:33:20;;;;;;;4.50;2.60;;;;;;;19.67;41.82;99503.75;5072885;28;20040;-83
2023/04/25 07:35:47;;;;;;;7.10;2.70;;;;;;;20.57;39.15;99516.78;5073605;28;20420;-86
2023/04/25 07:38:13;;;;;;;8.32;2.92;;;;;;;20.49;38.74;99516.03;5074186;28;20086;-86
2023/04/25 07:40:38;;;;;;;4.47;2.35;;;;;;;19.95;37.30;99514.47;5072570;28;20036;-84
2023/04/25 07:43:04;;;;;;;5.18;2.22;;;;;;;19.34;38.23;99520.09;5058414;28;20064;-85
2023/04/25 07:45:29;;;;;;;5.50;2.55;;;;;;;19.37;40.20;99506.56;5074107;28;20036;-81
2023/04/25 07:47:54;;;;;;;6.40;2.53;;;;;;;19.73;38.37;99518.06;5073333;28;20028;-83
2023/04/25 07:50:21;;;;;;;7.05;2.30;;;;;;;19.51;38.48;99520.31;5072906;28;20020;-82
2023/04/25 07:52:46;;;;;;;4.47;2.38;;;;;;;19.95;39.21;99514.47;5073386;28;20025;-81
2023/04/25 07:55:11;;;;;;;5.13;2.38;;;;;;;21.09;37.87;99505.66;5072168;28;20052;-85
2023/04/25 07:57:38;;;;;;;5.32;2.70;;;;;;;22.57;36.70;99513.09;5072291;28;20382;-84
2023/04/25 08:00:04;;;;;;;9.05;3.33;;;;;;;22.97;34.47;99499.09;5073438;28;20390;-82
2023/04/25 08:02:30;;;;;;;5.35;2.45;;;;;;;23.02;36.11;99506.03;5073507;28;20435;-83
2023/04/25 08:04:55;;;;;;;11.48;3.72;;;;;;;23.61;35.21;99511.72;5073160;28;20100;-84
2023/04/25 08:07:21;;;;;;;6.60;3.10;;;;;;;23.50;34.42;99507.22;5072325;28;20064;-84
2023/04/25 08:09:46;;;;;;;3.72;2.75;;;;;;;22.56;34.13;99506.50;5075107;28;20461;-83
2023/04/25 08:12:11;;;;;;;7.15;3.60;;;;;;;21.53;35.31;99511.91;5078889;28;20043;-83
2023/04/25 08:14:39;;;;;;;6.63;2.92;;;;;;;21.31;37.33;99509.81;5075521;28;20454;-84
2023/04/25 08:17:05;;;;;;;8.20;3.17;;;;;;;21.16;37.71;99514.34;5073394;28;20032;-83
2023/04/25 08:19:30;;;;;;;9.35;3.40;;;;;;;21.47;38.15;99520.84;5072300;28;20116;-86
2023/04/25 08:21:56;;;;;;;5.05;3.47;;;;;;;22.00;36.96;99511.78;5073758;28;20133;-87
2023/04/25 08:24:22;;;;;;;5.55;3.72;;;;;;;21.81;35.60;99519.47;5074084;28;20024;-86
2023/04/25 08:26:48;;;;;;;11.05;5.13;;;;;;;20.30;36.68;99510.59;5055961;28;20032;-84
2023/04/25 08:29:13;;;;;;;6.88;5.30;;;;;;;19.28;39.92;99518.69;5074003;28;20017;-84
2023/04/25 08:31:38;;;;;;;9.23;4.50;;;;;;;18.57;41.67;99520.22;5074878;28;20407;-86
2023/04/25 08:34:04;;;;;;;7.70;5.00;;;;;;;18.21;43.11;99525.88;5076623;28;20116;-87
2023/04/25 08:36:29;;;;;;;7.75;4.65;;;;;;;18.02;44.12;99522.44;5076631;28;20060;-87
2023/04/25 08:38:55;;;;;;;9.65;5.13;;;;;;;17.90;44.83;99532.72;5076460;28;20032;-87
2023/04/25 08:41:22;;;;;;;9.50;5.22;;;;;;;17.78;46.19;99529.34;5076388;28;20491;-86
2023/04/25 08:43:48;;;;;;;7.60;5.28;;;;;;;17.13;46.51;99536.06;5058239;28;20033;-86
2023/04/25 08:46:17;;;;;;;11.38;5.07;;;;;;;16.37;48.37;99529.16;5075219;28;20493;-85
2023/04/25 08:48:44;;;;;;;8.35;5.50;;;;;;;15.94;51.44;99530.16;5056321;28;20489;-84
2023/04/25 08:51:10;;;;;;;11.52;6.30;;;;;;;15.51;54.76;99529.53;5072195;28;20032;-84
2023/04/25 08:53:36;;;;;;;9.13;5.47;;;;;;;15.26;58.50;99523.88;5072197;28;20031;-82
2023/04/25 08:56:02;;;;;;;7.00;5.38;;;;;;;16.64;58.33;99515.56;5073051;28;20058;-83
2023/04/25 08:58:28;;;;;;;11.95;6.18;;;;;;;18.30;51.96;99513.81;5073122;28;20469;-81
2023/04/25 09:00:54;;;;;;;9.75;5.43;;;;;;;19.24;47.47;99512.50;5073223;28;20028;-83
2023/04/25 09:03:20;;;;;;;6.65;4.25;;;;;;;19.11;43.83;99519.19;5072476;28;20085;-83
2023/04/25 09:05:45;;;;;;;7.95;4.63;;;;;;;18.73;43.81;99518.19;5072577;28;20028;-82
2023/04/25 09:08:11;;;;;;;5.30;4.28;;;;;;;19.07;43.68;99522.44;5071325;28;20028;-84
2023/04/25 09:10:37;;;;;;;6.10;4.88;;;;;;;19.69;43.20;99520.56;5072880;28;20024;-82
2023/04/25 09:13:04;;;;;;;5.95;4.40;;;;;;;19.51;42.73;99511.63;5072727;28;20428;-82
2023/04/25 09:15:31;;;;;;;5.10;4.15;;;;;;;19.19;43.89;99508.44;5072247;28;20032;-83
2023/04/25 09:17:57;;;;;;;6.38;4.15;;;;;;;19.39;42.44;99515.47;5072539;28;20033;-82
2023/04/25 09:20:22;;;;;;;8.45;4.38;;;;;;;20.13;41.85;99513.31;5071607;28;20048;-86
2023/04/25 09:22:48;;;;;;;8.25;4.45;;;;;;;20.00;40.70;99530.91;5072482;28;20146;-86
2023/04/25 09:25:16;;;;;;;5.90;3.78;;;;;;;20.01;41.32;99517.16;5073078;28;20035;-85
2023/04/25 09:27:52;;;;;;;8.35;3.67;;;;;;;20.00;41.38;99522.22;5075837;28;20457;-84
2023/04/25 09:30:17;;;;;;;8.15;3.70;;;;;;;20.18;39.85;99515.25;5075451;28;20025;-85
2023/04/25 09:32:43;;;;;;;3.65;3.05;;;;;;;19.86;40.21;99521.56;5075359;28;20039;-85
2023/04/25 09:35:09;;;;;;;5.80;3.45;;;;;;;20.04;40.37;99516.81;5076060;28;20035;-86
2023/04/25 09:37:35;;;;;;;7.10;3.50;;;;;;;19.93;41.65;99512.16;5076459;28;20025;-83
2023/04/25 09:40:05;;;;;;;5.10;3.45;;;;;;;19.19;40.04;99527.94;5075836;28;20043;-85
2023/04/25 09:42:31;;;;;;;4.20;3.00;;;;;;;18.73;41.39;99523.97;5074928;28;20020;-85
2023/04/25 09:44:58;;;;;;;3.42;2.72;;;;;;;18.38;41.27;99523.34;5075729;28;20024;-86
2023/04/25 09:47:25;;;;;;;4.32;2.65;;;;;;;18.06;44.08;99528.63;5075800;28;20043;-86
2023/04/25 09:49:51;;;;;;;4.13;2.60;;;;;;;17.94;42.17;99521.56;5080462;28;20024;-86
2023/04/25 09:52:18;;;;;;;9.40;3.38;;;;;;;18.04;43.12;99519.75;5065416;28;20353;-89
2023/04/25 09:54:48;;;;;;;4.47;3.33;;;;;;;17.97;43.53;99509.69;5079855;28;20140;-87
2023/04/25 09:57:19;;;;;;;6.47;3.30;;;;;;;17.84;43.72;99524.97;5076339;28;20047;-86
2023/04/25 09:59:49;;;;;;;7.37;4.10;;;;;;;17.90;43.60;99529.84;5075637;28;20085;-87
2023/04/25 10:02:19;;;;;;;6.00;4.18;;;;;;;17.26;43.39;99531.03;5079113;28;20278;-85
2023/04/25 10:04:48;;;;;;;6.15;3.85;;;;;;;17.07;45.58;99538.28;5081390;28;20024;-84
2023/04/25 10:07:14;;;;;;;6.70;4.30;;;;;;;16.84;46.00;99529.31;5081444;28;20107;-87
2023/04/25 10:09:40;;;;;;;7.93;4.00;;;;;;;16.60;46.62;99524.53;5059886;28;20039;-88
2023/04/25 10:12:07;;;;;;;8.95;4.65;;;;;;;16.94;47.41;99534.06;5076364;28;20481;-85
2023/04/25 10:14:32;;;;;;;5.50;4.55;;;;;;;17.15;47.25;99534.16;5075103;28;20024;-90
2023/04/25 10:16:59;;;;;;;3.55;3.25;;;;;;;17.38;47.19;99520.78;5076795;28;20111;-83
2023/04/25 10:19:26;;;;;;;7.75;4.65;;;;;;;17.89;47.17;99525.38;5074514;28;20089;-86
2023/04/25 10:21:55;;;;;;;12.27;4.57;;;;;;;18.26;45.00;99527.84;5076100;28;20031;-86
2023/04/25 10:24:22;;;;;;;7.00;4.57;;;;;;;18.56;44.97;99524.44;5058082;28;20025;-87
2023/04/25 10:26:48;;;;;;;8.00;4.75;;;;;;;18.37;45.34;99521.03;5074347;28;20056;-86
2023/04/25 10:29:22;;;;;;;6.95;4.68;;;;;;;18.39;44.36;99522.00;5075840;28;20032;-87
2023/04/25 10:31:48;;;;;;;6.30;3.88;;;;;;;18.43;44.34;99507.94;5074295;28;20025;-85
2023/04/25 10:34:13;;;;;;;9.90;5.13;;;;;;;18.49;45.56;99522.28;5074733;28;20045;-88
2023/04/25 10:36:39;;;;;;;4.90;3.75;;;;;;;18.77;43.95;99518.63;5075493;28;20039;-91
2023/04/25 10:39:09;;;;;;;5.93;3.72;;;;;;;18.54;42.28;99525.00;5078589;28;20562;-89
2023/04/25 10:41:53;;;;;;;6.00;4.15;;;;;;;18.60;42.86;99519.84;5078498;28;20039;-91
2023/04/25 10:44:18;;;;;;;5.78;3.80;;;;;;;18.32;42.64;99513.28;5078443;28;20154;-90
2023/04/25 10:46:45;;;;;;;9.15;4.10;;;;;;;18.17;42.92;99511.00;5076146;28;20457;-88
2023/04/25 10:49:11;;;;;;;9.15;3.15;;;;;;;17.42;42.79;99517.56;5076289;28;20038;-87
2023/04/25 10:51:36;;;;;;;6.85;3.28;;;;;;;17.30;43.37;99524.91;5075449;28;20032;-89
2023/04/25 10:54:03;;;;;;;6.07;3.42;;;;;;;17.27;44.06;99517.38;5075754;28;20451;-88
2023/04/25 10:56:36;;;;;;;5.72;3.40;;;;;;;17.53;44.57;99520.22;5075700;28;20469;-88
2023/04/25 10:59:05;;;;;;;4.10;3.10;;;;;;;17.90;43.80;99521.94;5075646;28;20021;-88
2023/04/25 11:01:36;;;;;;;6.05;3.70;;;;;;;18.00;43.46;99507.75;5076816;28;20048;-89
2023/04/25 11:04:02;;;;;;;5.13;3.20;;;;;;;18.17;43.07;99493.66;5076140;28;20032;-87
2023/04/25 11:06:50;;;;;;;4.97;3.00;;;;;;;18.37;42.19;99498.66;5074177;28;20396;-84
2023/04/25 11:09:16;;;;;;;8.15;3.83;;;;;;;18.45;42.12;99505.28;5074302;28;20024;-86
2023/04/25 11:11:41;;;;;;;4.50;2.83;;;;;;;17.92;41.98;99504.81;5077800;28;20062;-88
2023/04/25 11:14:07;;;;;;;7.53;3.28;;;;;;;17.35;43.04;99498.00;5095752;28;20039;-88
2023/04/25 11:16:32;;;;;;;4.00;3.20;;;;;;;17.08;44.42;99499.44;5077796;28;20032;-86
2023/04/25 11:18:58;;;;;;;5.28;2.80;;;;;;;17.22;45.47;99509.59;5093839;28;20035;-84
2023/04/25 11:21:27;;;;;;;4.15;2.55;;;;;;;17.44;44.29;99493.88;5095863;28;20024;-84
2023/04/25 11:23:53;;;;;;;4.10;2.00;;;;;;;17.49;43.37;99502.44;5097561;28;20036;-84
2023/04/25 11:26:20;;;;;;;2.83;2.38;;;;;;;17.10;44.26;99505.41;5090108;28;20209;-83
2023/04/25 11:28:46;;;;;;;5.30;2.28;;;;;;;17.19;44.62;99507.84;5092477;28;20095;-87